createdAt,value
2022-11-01T00:00:50.287Z,12.30
2022-11-01T00:03:23.865Z,12.30
2022-11-01T00:05:56.211Z,12.30
2022-11-01T00:08:28.839Z,12.20
2022-11-01T00:11:10.790Z,12.20
2022-11-01T00:13:40.207Z,12.20
2022-11-01T00:16:17.203Z,12.30
2022-11-01T00:18:48.392Z,12.30
2022-11-01T00:21:18.634Z,12.30
2022-11-01T00:23:48.054Z,12.30
2022-11-01T00:26:21.505Z,12.40
2022-11-01T00:28:56.238Z,12.40
2022-11-01T00:31:26.465Z,12.40
2022-11-01T00:33:59.548Z,12.20
2022-11-01T00:36:28.368Z,12.20
2022-11-01T00:38:57.195Z,12.10
2022-11-01T00:41:32.253Z,12.10
2022-11-01T00:44:03.252Z,12.10
2022-11-01T00:46:48.690Z,12.10
2022-11-01T00:49:18.350Z,12.10
2022-11-01T00:51:48.259Z,12.10
2022-11-01T00:54:20.887Z,12.00
2022-11-01T00:56:53.661Z,12.00
2022-11-01T00:59:40.639Z,12.00
2022-11-01T01:02:12.308Z,12.00
2022-11-01T01:04:50.464Z,12.00
2022-11-01T01:07:22.963Z,11.90
2022-11-01T01:09:53.688Z,11.90
2022-11-01T01:12:26.538Z,11.90
2022-11-01T01:14:56.272Z,11.90
2022-11-01T01:17:31.253Z,11.80
2022-11-01T01:20:12.135Z,11.80
2022-11-01T01:22:42.815Z,11.80
2022-11-01T01:25:25.343Z,11.90
2022-11-01T01:27:58.491Z,11.90
2022-11-01T01:30:28.596Z,11.90
2022-11-01T01:33:08.205Z,12.00
2022-11-01T01:35:40.830Z,11.90
2022-11-01T01:38:13.717Z,11.80
2022-11-01T01:40:48.063Z,11.80
2022-11-01T01:43:19.434Z,11.80
2022-11-01T01:45:51.638Z,11.80
2022-11-01T01:48:27.294Z,11.90
2022-11-01T01:51:12.875Z,11.90
2022-11-01T01:53:51.938Z,11.90
2022-11-01T01:56:28.882Z,11.90
2022-11-01T01:59:12.205Z,11.90
2022-11-01T02:01:49.976Z,11.90
2022-11-01T02:04:50.827Z,11.90
2022-11-01T02:07:24.561Z,11.90
2022-11-01T02:09:55.477Z,11.90
2022-11-01T02:12:36.580Z,11.80
2022-11-01T02:15:13.643Z,11.90
2022-11-01T02:17:58.219Z,11.90
2022-11-01T02:20:41.270Z,11.90
2022-11-01T02:23:20.464Z,11.80
2022-11-01T02:26:38.717Z,11.70
2022-11-01T02:29:59.883Z,11.60
2022-11-01T02:33:21.055Z,11.60
2022-11-01T02:36:12.592Z,11.60
2022-11-01T02:39:28.457Z,11.60
2022-11-01T02:42:24.938Z,11.70
2022-11-01T02:45:06.983Z,11.70
2022-11-01T02:47:38.843Z,11.70
2022-11-01T02:50:12.903Z,11.60
2022-11-01T02:52:41.558Z,11.60
2022-11-01T02:55:36.513Z,11.60
2022-11-01T02:58:27.004Z,11.40
2022-11-01T03:01:00.359Z,11.40
2022-11-01T03:03:35.999Z,11.40
2022-11-01T03:06:23.498Z,11.30
2022-11-01T03:09:02.058Z,11.40
2022-11-01T03:11:57.131Z,11.40
2022-11-01T03:14:38.059Z,11.40
2022-11-01T03:17:24.608Z,11.50
2022-11-01T03:20:10.573Z,11.50
2022-11-01T03:22:52.461Z,11.50
2022-11-01T03:25:44.803Z,11.60
2022-11-01T03:28:26.521Z,11.60
2022-11-01T03:31:13.412Z,11.60
2022-11-01T03:34:14.512Z,11.60
2022-11-01T03:36:51.027Z,11.60
2022-11-01T03:39:38.181Z,11.60
2022-11-01T03:42:12.928Z,11.70
2022-11-01T03:44:48.667Z,11.70
2022-11-01T03:47:18.897Z,11.60
2022-11-01T03:49:51.682Z,11.60
2022-11-01T03:52:22.257Z,11.60
2022-11-01T03:54:54.720Z,11.60
2022-11-01T03:57:25.323Z,11.60
2022-11-01T03:59:58.150Z,11.50
2022-11-01T04:02:26.549Z,11.50
2022-11-01T04:05:00.142Z,11.50
2022-11-01T04:07:28.308Z,11.50
2022-11-01T04:10:01.179Z,11.50
2022-11-01T04:12:34.929Z,11.50
2022-11-01T04:15:20.830Z,11.50
2022-11-01T04:18:09.133Z,11.60
2022-11-01T04:20:44.657Z,11.50
2022-11-01T04:23:15.665Z,11.50
2022-11-01T04:25:54.627Z,11.50
2022-11-01T04:28:26.095Z,11.50
2022-11-01T04:30:54.927Z,11.50
2022-11-01T04:33:23.929Z,11.50
2022-11-01T04:35:56.344Z,11.60
2022-11-01T04:38:38.249Z,11.60
2022-11-01T04:41:05.442Z,11.60
2022-11-01T04:43:37.071Z,11.70
2022-11-01T04:48:52.234Z,11.60
2022-11-01T04:51:21.333Z,11.60
2022-11-01T04:53:54.577Z,11.50
2022-11-01T04:56:28.538Z,11.50
2022-11-01T04:59:05.542Z,11.50
2022-11-01T05:01:39.214Z,11.50
2022-11-01T05:04:13.055Z,11.60
2022-11-01T05:06:45.810Z,11.60
2022-11-01T05:09:20.864Z,11.60
2022-11-01T05:11:50.922Z,11.50
2022-11-01T05:14:21.983Z,11.50
2022-11-01T05:16:50.747Z,11.50
2022-11-01T05:19:22.200Z,11.50
2022-11-01T05:21:56.024Z,11.50
2022-11-01T05:24:25.946Z,11.40
2022-11-01T05:27:01.973Z,11.30
2022-11-01T05:29:34.928Z,11.30
2022-11-01T05:32:08.071Z,11.40
2022-11-01T05:34:35.678Z,11.50
2022-11-01T05:37:04.848Z,11.40
2022-11-01T05:39:36.686Z,11.50
2022-11-01T05:42:07.894Z,11.50
2022-11-01T05:44:47.427Z,11.50
2022-11-01T05:47:25.347Z,11.50
2022-11-01T05:50:02.290Z,11.50
2022-11-01T05:52:36.582Z,11.50
2022-11-01T05:55:05.526Z,11.60
2022-11-01T05:57:39.899Z,11.60
2022-11-01T06:00:16.104Z,11.60
2022-11-01T06:02:46.377Z,11.70
2022-11-01T06:05:21.255Z,11.70
2022-11-01T06:07:48.390Z,11.70
2022-11-01T06:10:21.893Z,11.80
2022-11-01T06:12:56.231Z,11.80
2022-11-01T06:15:39.693Z,11.90
2022-11-01T06:18:08.866Z,11.90
2022-11-01T06:20:45.850Z,11.90
2022-11-01T06:23:19.245Z,11.90
2022-11-01T06:25:52.951Z,11.80
2022-11-01T06:28:23.040Z,11.80
2022-11-01T06:30:54.824Z,11.80
2022-11-01T06:33:27.790Z,11.80
2022-11-01T06:36:01.072Z,11.80
2022-11-01T06:38:34.007Z,11.80
2022-11-01T06:41:05.682Z,11.80
2022-11-01T06:43:34.459Z,11.80
2022-11-01T06:46:07.972Z,11.80
2022-11-01T06:48:41.400Z,11.90
2022-11-01T06:51:11.944Z,12.00
2022-11-01T06:53:47.800Z,12.00
2022-11-01T06:56:19.947Z,12.00
2022-11-01T06:58:50.351Z,12.00
2022-11-01T07:01:22.207Z,12.00
2022-11-01T07:03:56.293Z,11.90
2022-11-01T07:06:36.104Z,11.90
2022-11-01T07:09:06.335Z,11.90
2022-11-01T07:11:38.242Z,12.00
2022-11-01T07:14:06.367Z,12.10
2022-11-01T07:16:38.879Z,12.20
2022-11-01T07:19:06.668Z,12.30
2022-11-01T07:21:37.920Z,12.40
2022-11-01T07:24:12.134Z,12.50
2022-11-01T07:26:41.884Z,12.40
2022-11-01T07:29:11.180Z,12.40
2022-11-01T07:31:41.428Z,12.40
2022-11-01T07:34:14.822Z,12.40
2022-11-01T07:36:51.499Z,12.50
2022-11-01T07:39:23.980Z,12.50
2022-11-01T07:41:57.073Z,12.40
2022-11-01T07:44:33.859Z,12.20
2022-11-01T07:47:05.252Z,12.10
2022-11-01T07:49:36.751Z,12.10
2022-11-01T07:52:11.014Z,12.20
2022-11-01T07:54:41.124Z,12.30
2022-11-01T07:57:26.733Z,12.30
2022-11-01T07:59:57.066Z,12.30
2022-11-01T08:02:29.645Z,12.40
2022-11-01T08:05:02.863Z,12.60
2022-11-01T08:07:37.438Z,12.60
2022-11-01T08:10:19.348Z,12.70
2022-11-01T08:12:57.908Z,12.80
2022-11-01T08:15:30.639Z,12.80
2022-11-01T08:18:01.162Z,12.90
2022-11-01T08:20:33.358Z,12.90
2022-11-01T08:23:09.948Z,13.00
2022-11-01T08:25:40.631Z,13.00
2022-11-01T08:28:28.501Z,12.90
2022-11-01T08:30:59.330Z,13.00
2022-11-01T08:33:33.092Z,13.10
2022-11-01T08:36:00.949Z,13.10
2022-11-01T08:38:37.652Z,13.10
2022-11-01T08:41:09.428Z,13.10
2022-11-01T08:43:41.151Z,13.20
2022-11-01T08:46:11.700Z,13.20
2022-11-01T08:48:44.168Z,13.10
2022-11-01T08:51:15.843Z,13.30
2022-11-01T08:53:50.239Z,13.40
2022-11-01T08:56:25.269Z,13.40
2022-11-01T08:58:59.276Z,13.50
2022-11-01T09:01:30.201Z,13.50
2022-11-01T09:04:04.493Z,13.50
2022-11-01T09:06:36.185Z,13.40
2022-11-01T09:09:13.470Z,13.50
2022-11-01T09:11:47.045Z,13.50
2022-11-01T09:14:23.360Z,13.60
2022-11-01T09:16:53.929Z,13.50
2022-11-01T09:19:29.834Z,13.70
2022-11-01T09:22:02.424Z,13.80
2022-11-01T09:24:33.972Z,13.70
2022-11-01T09:27:11.683Z,13.60
2022-11-01T09:29:39.575Z,13.50
2022-11-01T09:32:13.950Z,13.40
2022-11-01T09:34:50.273Z,13.40
2022-11-01T09:37:21.284Z,13.20
2022-11-01T09:39:50.144Z,13.20
2022-11-01T09:42:34.768Z,13.30
2022-11-01T09:45:21.477Z,13.30
2022-11-01T09:47:59.363Z,13.30
2022-11-01T09:50:44.533Z,13.30
2022-11-01T09:53:24.344Z,13.40
2022-11-01T09:56:16.375Z,13.40
2022-11-01T09:59:18.466Z,13.50
2022-11-01T10:02:35.023Z,13.60
2022-11-01T10:05:30.650Z,13.70
2022-11-01T10:08:35.298Z,13.70
2022-11-01T10:11:29.185Z,13.70
2022-11-01T10:14:24.785Z,13.80
2022-11-01T10:17:14.658Z,13.80
2022-11-01T10:19:56.562Z,13.90
2022-11-01T10:22:34.322Z,14.00
2022-11-01T10:25:25.997Z,14.10
2022-11-01T10:28:22.769Z,14.20
2022-11-01T10:31:07.902Z,14.30
2022-11-01T10:33:39.459Z,14.30
2022-11-01T10:36:21.951Z,14.40
2022-11-01T10:39:53.193Z,14.50
2022-11-01T10:42:18.276Z,14.50
2022-11-01T10:44:59.829Z,14.60
2022-11-01T10:47:31.255Z,14.70
2022-11-01T10:50:12.882Z,14.80
2022-11-01T10:53:03.648Z,14.80
2022-11-01T10:55:57.815Z,14.90
2022-11-01T10:59:05.050Z,14.90
2022-11-01T11:01:45.146Z,15.00
2022-11-01T11:04:16.223Z,15.20
2022-11-01T11:06:47.290Z,15.20
2022-11-01T11:09:37.513Z,15.20
2022-11-01T11:12:15.137Z,15.20
2022-11-01T11:14:52.787Z,15.20
2022-11-01T11:17:33.007Z,15.40
2022-11-01T11:20:08.593Z,15.50
2022-11-01T11:22:41.674Z,15.60
2022-11-01T11:25:35.299Z,15.70
2022-11-01T11:28:27.189Z,15.80
2022-11-01T11:30:59.285Z,15.90
2022-11-01T11:33:32.781Z,15.90
2022-11-01T11:36:06.492Z,16.10
2022-11-01T11:38:52.967Z,16.20
2022-11-01T11:41:38.490Z,16.20
2022-11-01T11:44:35.644Z,16.40
2022-11-01T11:47:08.105Z,16.40
2022-11-01T11:49:52.865Z,16.50
2022-11-01T11:52:38.427Z,16.70
2022-11-01T11:55:45.258Z,16.80
2022-11-01T11:58:30.873Z,17.00
2022-11-01T12:01:17.347Z,17.10
2022-11-01T12:04:27.493Z,17.10
2022-11-01T12:07:00.133Z,17.20
2022-11-01T12:09:54.197Z,17.30
2022-11-01T12:12:27.669Z,17.50
2022-11-01T12:14:58.994Z,17.60
2022-11-01T12:17:44.120Z,17.80
2022-11-01T12:20:24.168Z,17.90
2022-11-01T12:23:36.766Z,18.10
2022-11-01T12:26:17.696Z,18.40
2022-11-01T12:29:16.306Z,18.60
2022-11-01T12:31:44.959Z,18.90
2022-11-01T12:34:31.102Z,19.20
2022-11-01T12:37:15.706Z,19.60
2022-11-01T12:40:18.702Z,20.00
2022-11-01T12:43:33.493Z,20.50
2022-11-01T12:46:13.809Z,21.70
2022-11-01T12:48:58.882Z,23.60
2022-11-01T12:51:38.703Z,25.60
2022-11-01T12:54:40.995Z,27.40
2022-11-01T12:57:18.250Z,29.30
2022-11-01T12:59:48.455Z,30.30
2022-11-01T13:02:41.271Z,30.90
2022-11-01T13:05:41.404Z,31.40
2022-11-01T13:08:22.256Z,32.30
2022-11-01T13:10:59.485Z,33.30
2022-11-01T13:13:46.745Z,33.90
2022-11-01T13:16:27.675Z,34.40
2022-11-01T13:19:23.703Z,34.30
2022-11-01T13:22:09.343Z,34.40
2022-11-01T13:25:14.874Z,34.50
2022-11-01T13:27:56.007Z,33.80
2022-11-01T13:30:25.071Z,32.90
2022-11-01T13:33:29.554Z,32.80
2022-11-01T13:36:32.795Z,33.20
2022-11-01T13:39:30.553Z,33.80
2022-11-01T13:42:33.267Z,33.70
2022-11-01T13:45:30.248Z,33.80
2022-11-01T13:48:24.722Z,34.00
2022-11-01T13:51:35.222Z,33.90
2022-11-01T13:54:30.427Z,33.40
2022-11-01T13:57:21.447Z,32.60
2022-11-01T14:00:11.096Z,31.70
2022-11-01T14:03:04.450Z,30.80
2022-11-01T14:05:39.513Z,29.90
2022-11-01T14:08:14.918Z,29.20
2022-11-01T14:10:54.108Z,28.60
2022-11-01T14:13:47.033Z,28.00
2022-11-01T14:16:23.970Z,27.50
2022-11-01T14:19:20.492Z,27.10
2022-11-01T14:21:53.795Z,26.60
2022-11-01T14:24:35.306Z,26.20
2022-11-01T14:27:23.877Z,25.70
2022-11-01T14:29:58.661Z,25.30
2022-11-01T14:32:30.652Z,25.00
2022-11-01T14:35:20.010Z,24.70
2022-11-01T14:37:54.115Z,24.40
2022-11-01T14:40:35.952Z,24.00
2022-11-01T14:43:48.385Z,23.70
2022-11-01T14:46:25.299Z,23.30
2022-11-01T14:49:11.435Z,23.00
2022-11-01T14:52:23.070Z,22.70
2022-11-01T14:58:22.759Z,22.10
2022-11-01T15:01:02.193Z,21.80
2022-11-01T15:03:33.471Z,21.50
2022-11-01T15:06:16.846Z,21.30
2022-11-01T15:08:50.085Z,21.10
2022-11-01T15:11:22.266Z,20.90
2022-11-01T15:13:56.534Z,20.60
2022-11-01T15:16:31.458Z,20.40
2022-11-01T15:19:08.717Z,20.20
2022-11-01T15:21:48.688Z,20.00
2022-11-01T15:24:21.988Z,19.70
2022-11-01T15:26:54.404Z,19.50
2022-11-01T15:29:27.441Z,19.30
2022-11-01T15:32:10.634Z,19.20
2022-11-01T15:34:41.918Z,19.00
2022-11-01T15:37:23.765Z,18.90
2022-11-01T15:42:40.418Z,18.80
2022-11-01T15:45:46.332Z,18.70
2022-11-01T15:48:25.718Z,18.60
2022-11-01T15:51:04.071Z,18.50
2022-11-01T15:53:37.019Z,18.40
2022-11-01T15:56:17.023Z,18.40
2022-11-01T15:58:56.948Z,18.30
2022-11-01T16:01:26.418Z,18.20
2022-11-01T16:04:06.489Z,18.20
2022-11-01T16:06:50.022Z,18.20
2022-11-01T16:09:21.401Z,18.10
2022-11-01T16:11:52.727Z,18.10
2022-11-01T16:14:27.810Z,18.00
2022-11-01T16:17:23.274Z,18.00
2022-11-01T16:19:56.674Z,18.00
2022-11-01T16:22:50.648Z,17.90
2022-11-01T16:25:29.626Z,17.90
2022-11-01T16:28:16.442Z,17.80
2022-11-01T16:30:57.776Z,17.80
2022-11-01T16:33:29.722Z,17.70
2022-11-01T16:36:24.124Z,17.70
2022-11-01T16:39:12.416Z,17.70
2022-11-01T16:41:50.019Z,17.60
2022-11-01T16:44:26.183Z,17.60
2022-11-01T16:47:06.825Z,17.60
2022-11-01T16:49:51.807Z,17.50
2022-11-01T16:52:30.182Z,17.50
2022-11-01T16:55:03.023Z,17.40
2022-11-01T16:57:33.709Z,17.30
2022-11-01T17:00:05.531Z,17.30
2022-11-01T17:02:35.991Z,17.40
2022-11-01T17:05:36.603Z,17.30
2022-11-01T17:08:08.897Z,17.30
2022-11-01T17:10:43.014Z,17.20
2022-11-01T17:13:12.492Z,17.30
2022-11-01T17:15:51.817Z,17.30
2022-11-01T17:18:38.024Z,17.20
2022-11-01T17:21:12.284Z,17.20
2022-11-01T17:23:45.249Z,17.20
2022-11-01T17:26:19.628Z,17.30
2022-11-01T17:28:55.604Z,17.30
2022-11-01T17:31:32.818Z,17.40
2022-11-01T17:34:02.523Z,17.40
2022-11-01T17:36:36.445Z,17.30
2022-11-01T17:39:05.892Z,17.30
2022-11-01T17:41:43.353Z,17.20
2022-11-01T17:44:13.403Z,17.20
2022-11-01T17:46:44.213Z,17.10
2022-11-01T17:49:24.453Z,17.10
2022-11-01T17:51:58.368Z,17.10
2022-11-01T17:54:37.329Z,17.00
2022-11-01T17:57:09.405Z,17.00
2022-11-01T17:59:49.610Z,17.00
2022-11-01T18:02:27.214Z,16.90
2022-11-01T18:05:01.287Z,17.00
2022-11-01T18:07:46.298Z,17.00
2022-11-01T18:10:23.064Z,17.00
2022-11-01T18:13:34.854Z,16.90
2022-11-01T18:16:23.640Z,16.90
2022-11-01T18:19:33.572Z,16.80
2022-11-01T18:22:31.858Z,16.80
2022-11-01T18:25:37.762Z,16.80
2022-11-01T18:28:35.036Z,16.90
2022-11-01T18:31:31.823Z,16.80
2022-11-01T18:34:14.894Z,16.80
2022-11-01T18:36:54.869Z,16.80
2022-11-01T18:39:49.789Z,16.70
2022-11-01T18:42:18.549Z,16.70
2022-11-01T18:44:56.979Z,16.70
2022-11-01T18:47:40.830Z,16.70
2022-11-01T18:50:26.317Z,16.70
2022-11-01T18:53:24.107Z,16.70
2022-11-01T18:56:03.868Z,16.60
2022-11-01T18:58:36.542Z,16.60
2022-11-01T19:01:19.663Z,16.50
2022-11-01T19:04:30.734Z,16.50
2022-11-01T19:07:39.381Z,16.50
2022-11-01T19:10:22.516Z,16.50
2022-11-01T19:13:01.631Z,16.40
2022-11-01T19:15:31.576Z,16.40
2022-11-01T19:18:14.251Z,16.40
2022-11-01T19:21:11.609Z,16.40
2022-11-01T19:23:48.738Z,16.50
2022-11-01T19:26:41.821Z,16.50
2022-11-01T19:29:23.882Z,16.50
2022-11-01T19:32:01.826Z,16.50
2022-11-01T19:41:34.118Z,16.50
2022-11-01T19:44:20.733Z,16.50
2022-11-01T19:46:54.551Z,16.50
2022-11-01T19:49:37.102Z,16.40
2022-11-01T19:52:27.329Z,16.40
2022-11-01T19:54:58.673Z,16.30
2022-11-01T19:57:43.948Z,16.30
2022-11-01T20:00:21.031Z,16.20
2022-11-01T20:02:57.884Z,16.20
2022-11-01T20:05:35.616Z,16.20
2022-11-01T20:08:33.794Z,16.30
2022-11-01T20:11:02.727Z,16.20
2022-11-01T20:13:30.133Z,16.20
2022-11-01T20:15:58.413Z,16.10
2022-11-01T20:18:30.852Z,16.10
2022-11-01T20:21:07.739Z,16.00
2022-11-01T20:23:39.167Z,16.00
2022-11-01T20:26:09.825Z,16.00
2022-11-01T20:28:41.945Z,15.90
2022-11-01T20:31:13.047Z,15.90
2022-11-01T20:33:44.651Z,15.80
2022-11-01T20:36:16.951Z,15.70
2022-11-01T20:38:45.435Z,15.60
2022-11-01T20:41:13.143Z,15.60
2022-11-01T20:43:43.476Z,15.70
2022-11-01T20:46:11.404Z,15.70
2022-11-01T20:48:41.851Z,15.70
2022-11-01T20:51:13.339Z,15.70
2022-11-01T20:53:44.661Z,15.60
2022-11-01T20:56:54.368Z,15.60
2022-11-01T20:59:30.759Z,15.60
2022-11-01T21:02:01.223Z,15.60
2022-11-01T21:04:34.384Z,15.60
2022-11-01T21:07:06.429Z,15.50
2022-11-01T21:09:45.330Z,15.50
2022-11-01T21:12:41.376Z,15.40
2022-11-01T21:15:40.182Z,15.20
2022-11-01T21:18:10.703Z,15.00
2022-11-01T21:20:40.993Z,14.90
2022-11-01T21:23:38.451Z,15.00
2022-11-01T21:26:25.193Z,15.00
2022-11-01T21:28:54.289Z,14.90
2022-11-01T21:31:41.443Z,14.90
2022-11-01T21:34:12.116Z,14.90
2022-11-01T21:36:47.783Z,14.90
2022-11-01T21:39:25.969Z,14.90
2022-11-01T21:42:26.877Z,14.90
2022-11-01T21:44:59.730Z,15.00
2022-11-01T21:47:34.699Z,15.10
2022-11-01T21:50:03.287Z,15.10
2022-11-01T21:52:31.251Z,15.10
2022-11-01T21:55:02.681Z,15.10
2022-11-01T21:57:30.264Z,15.10
2022-11-01T21:59:58.877Z,15.10
2022-11-01T22:02:27.485Z,15.10
2022-11-01T22:04:56.359Z,15.20
2022-11-01T22:07:26.765Z,15.30
2022-11-01T22:09:55.535Z,15.30
2022-11-01T22:12:25.599Z,15.40
2022-11-01T22:14:55.728Z,15.40
2022-11-01T22:17:26.535Z,15.50
2022-11-01T22:19:54.603Z,15.50
2022-11-01T22:22:22.306Z,15.50
2022-11-01T22:24:52.484Z,15.50
2022-11-01T22:27:21.188Z,15.50
2022-11-01T22:29:51.787Z,15.50
2022-11-01T22:32:20.530Z,15.50
2022-11-01T22:34:51.187Z,15.40
2022-11-01T22:37:21.571Z,15.30
2022-11-01T22:39:53.172Z,15.20
2022-11-01T22:42:22.392Z,15.10
2022-11-01T22:44:50.983Z,15.10
2022-11-01T22:47:28.451Z,15.10
2022-11-01T22:50:04.891Z,15.00
2022-11-01T22:52:52.514Z,15.00
2022-11-01T22:55:23.839Z,15.00
2022-11-01T22:58:06.483Z,15.00
2022-11-01T23:00:39.572Z,15.00
2022-11-01T23:03:31.221Z,15.00
2022-11-01T23:06:04.739Z,15.00
2022-11-01T23:08:40.127Z,14.90
2022-11-01T23:11:34.746Z,14.80
2022-11-01T23:14:41.417Z,14.80
2022-11-01T23:17:34.555Z,14.70
2022-11-01T23:20:03.672Z,14.70
2022-11-01T23:22:36.176Z,14.70
2022-11-01T23:25:06.624Z,14.70
2022-11-01T23:27:34.465Z,14.50
2022-11-01T23:30:02.719Z,14.50
2022-11-01T23:32:32.553Z,14.40
2022-11-01T23:35:23.891Z,14.40
2022-11-01T23:37:57.974Z,14.40
2022-11-01T23:40:42.050Z,14.50
2022-11-01T23:43:53.631Z,14.40
2022-11-01T23:46:23.627Z,14.30
2022-11-01T23:49:18.316Z,14.30
2022-11-01T23:51:52.223Z,14.30
2022-11-01T23:54:45.167Z,14.30
2022-11-01T23:57:21.550Z,14.30
2022-11-01T23:59:54.114Z,14.30
